sensor_id;sensor_type;location;lat;lon;timestamp;temperature;humidity
21648;DHT22;10985;54.182;7.890;2023-06-14T00:02:17;16.60;99.90
21648;DHT22;10985;54.182;7.890;2023-06-14T00:04:42;16.60;99.90
21648;DHT22;10985;54.182;7.890;2023-06-14T00:07:08;16.60;99.90
21648;DHT22;10985;54.182;7.890;2023-06-14T00:09:34;16.60;99.90
21648;DHT22;10985;54.182;7.890;2023-06-14T00:12:00;16.60;99.90
21648;DHT22;10985;54.182;7.890;2023-06-14T00:14:26;16.60;99.90
21648;DHT22;10985;54.182;7.890;2023-06-14T00:16:51;16.60;99.90
21648;DHT22;10985;54.182;7.890;2023-06-14T00:19:18;16.60;99.90
21648;DHT22;10985;54.182;7.890;2023-06-14T00:21:45;16.50;99.90
21648;DHT22;10985;54.182;7.890;2023-06-14T00:24:11;16.50;99.90
21648;DHT22;10985;54.182;7.890;2023-06-14T00:26:36;16.40;99.90
21648;DHT22;10985;54.182;7.890;2023-06-14T00:29:02;16.40;99.90
21648;DHT22;10985;54.182;7.890;2023-06-14T00:31:27;16.40;99.90
21648;DHT22;10985;54.182;7.890;2023-06-14T00:33:53;16.40;99.90
21648;DHT22;10985;54.182;7.890;2023-06-14T00:36:19;16.40;99.90
21648;DHT22;10985;54.182;7.890;2023-06-14T00:38:44;16.30;99.90
21648;DHT22;10985;54.182;7.890;2023-06-14T00:41:10;16.30;99.90
21648;DHT22;10985;54.182;7.890;2023-06-14T00:43:35;16.30;99.90
21648;DHT22;10985;54.182;7.890;2023-06-14T00:46:01;16.30;99.90
21648;DHT22;10985;54.182;7.890;2023-06-14T00:48:27;16.30;99.90
21648;DHT22;10985;54.182;7.890;2023-06-14T00:50:54;16.30;99.90
21648;DHT22;10985;54.182;7.890;2023-06-14T00:53:20;16.20;99.90
21648;DHT22;10985;54.182;7.890;2023-06-14T00:55:48;16.20;99.90
21648;DHT22;10985;54.182;7.890;2023-06-14T00:58:14;16.20;99.90
21648;DHT22;10985;54.182;7.890;2023-06-14T01:00:40;16.20;99.90
21648;DHT22;10985;54.182;7.890;2023-06-14T01:03:05;16.20;99.90
21648;DHT22;10985;54.182;7.890;2023-06-14T01:05:31;16.20;99.90
21648;DHT22;10985;54.182;7.890;2023-06-14T01:13:20;16.10;99.90
21648;DHT22;10985;54.182;7.890;2023-06-14T01:15:47;16.10;99.90
21648;DHT22;10985;54.182;7.890;2023-06-14T01:18:12;16.00;99.90
21648;DHT22;10985;54.182;7.890;2023-06-14T01:20:45;16.00;99.90
21648;DHT22;10985;54.182;7.890;2023-06-14T01:23:12;16.00;99.90
21648;DHT22;10985;54.182;7.890;2023-06-14T01:25:38;16.00;99.90
21648;DHT22;10985;54.182;7.890;2023-06-14T01:28:05;16.00;99.90
21648;DHT22;10985;54.182;7.890;2023-06-14T01:30:38;16.00;99.90
21648;DHT22;10985;54.182;7.890;2023-06-14T01:33:04;15.90;99.90
21648;DHT22;10985;54.182;7.890;2023-06-14T01:35:30;15.90;99.90
21648;DHT22;10985;54.182;7.890;2023-06-14T01:37:56;15.90;99.90
21648;DHT22;10985;54.182;7.890;2023-06-14T01:40:23;15.90;99.90
21648;DHT22;10985;54.182;7.890;2023-06-14T01:42:50;15.90;99.90
21648;DHT22;10985;54.182;7.890;2023-06-14T01:45:17;15.90;99.90
21648;DHT22;10985;54.182;7.890;2023-06-14T01:47:45;15.80;99.90
21648;DHT22;10985;54.182;7.890;2023-06-14T01:50:11;15.80;99.90
21648;DHT22;10985;54.182;7.890;2023-06-14T01:52:37;15.80;99.90
21648;DHT22;10985;54.182;7.890;2023-06-14T01:55:06;15.80;99.90
21648;DHT22;10985;54.182;7.890;2023-06-14T01:57:31;15.80;99.90
21648;DHT22;10985;54.182;7.890;2023-06-14T01:59:57;15.80;99.90
21648;DHT22;10985;54.182;7.890;2023-06-14T02:02:23;15.80;99.90
21648;DHT22;10985;54.182;7.890;2023-06-14T02:04:48;15.80;99.90
21648;DHT22;10985;54.182;7.890;2023-06-14T02:07:14;15.70;99.90
21648;DHT22;10985;54.182;7.890;2023-06-14T02:09:40;15.70;99.90
21648;DHT22;10985;54.182;7.890;2023-06-14T02:12:06;15.70;99.90
21648;DHT22;10985;54.182;7.890;2023-06-14T02:14:32;15.70;99.90
21648;DHT22;10985;54.182;7.890;2023-06-14T02:16:59;15.70;99.90
21648;DHT22;10985;54.182;7.890;2023-06-14T02:19:26;15.70;99.90
21648;DHT22;10985;54.182;7.890;2023-06-14T02:21:51;15.70;99.90
21648;DHT22;10985;54.182;7.890;2023-06-14T02:24:17;15.70;99.90
21648;DHT22;10985;54.182;7.890;2023-06-14T02:26:42;15.60;99.90
21648;DHT22;10985;54.182;7.890;2023-06-14T02:29:08;15.70;99.90
21648;DHT22;10985;54.182;7.890;2023-06-14T02:31:36;15.60;99.90
21648;DHT22;10985;54.182;7.890;2023-06-14T02:34:02;15.60;99.90
21648;DHT22;10985;54.182;7.890;2023-06-14T02:36:28;15.60;99.90
21648;DHT22;10985;54.182;7.890;2023-06-14T02:38:56;15.60;99.90
21648;DHT22;10985;54.182;7.890;2023-06-14T02:41:23;15.60;99.90
21648;DHT22;10985;54.182;7.890;2023-06-14T02:43:49;15.60;99.90
21648;DHT22;10985;54.182;7.890;2023-06-14T02:46:14;15.60;99.90
21648;DHT22;10985;54.182;7.890;2023-06-14T02:48:40;15.60;99.90
21648;DHT22;10985;54.182;7.890;2023-06-14T02:51:05;15.50;99.90
21648;DHT22;10985;54.182;7.890;2023-06-14T02:53:31;15.50;99.90
21648;DHT22;10985;54.182;7.890;2023-06-14T02:55:56;15.50;99.90
21648;DHT22;10985;54.182;7.890;2023-06-14T02:58:22;15.50;99.90
21648;DHT22;10985;54.182;7.890;2023-06-14T03:00:50;15.50;99.90
21648;DHT22;10985;54.182;7.890;2023-06-14T03:03:17;15.50;99.90
21648;DHT22;10985;54.182;7.890;2023-06-14T03:05:44;15.50;99.90
21648;DHT22;10985;54.182;7.890;2023-06-14T03:08:15;15.50;99.90
21648;DHT22;10985;54.182;7.890;2023-06-14T03:10:48;15.50;99.90
21648;DHT22;10985;54.182;7.890;2023-06-14T03:13:15;15.50;99.90
21648;DHT22;10985;54.182;7.890;2023-06-14T03:15:46;15.50;99.90
21648;DHT22;10985;54.182;7.890;2023-06-14T03:18:13;15.50;99.90
21648;DHT22;10985;54.182;7.890;2023-06-14T03:20:40;15.50;99.90
21648;DHT22;10985;54.182;7.890;2023-06-14T03:23:06;15.50;99.90
21648;DHT22;10985;54.182;7.890;2023-06-14T03:25:32;15.50;99.90
21648;DHT22;10985;54.182;7.890;2023-06-14T03:28:04;15.50;99.90
21648;DHT22;10985;54.182;7.890;2023-06-14T03:30:30;15.50;99.90
21648;DHT22;10985;54.182;7.890;2023-06-14T03:32:56;15.50;99.90
21648;DHT22;10985;54.182;7.890;2023-06-14T03:35:22;15.50;99.90
21648;DHT22;10985;54.182;7.890;2023-06-14T03:37:48;15.50;99.90
21648;DHT22;10985;54.182;7.890;2023-06-14T03:40:17;15.50;99.90
21648;DHT22;10985;54.182;7.890;2023-06-14T03:42:43;15.50;99.90
21648;DHT22;10985;54.182;7.890;2023-06-14T03:45:08;15.50;99.90
21648;DHT22;10985;54.182;7.890;2023-06-14T03:47:34;15.50;99.90
21648;DHT22;10985;54.182;7.890;2023-06-14T03:50:00;15.50;99.90
21648;DHT22;10985;54.182;7.890;2023-06-14T03:52:26;15.50;99.90
21648;DHT22;10985;54.182;7.890;2023-06-14T03:54:52;15.50;99.90
21648;DHT22;10985;54.182;7.890;2023-06-14T03:57:18;15.50;99.90
21648;DHT22;10985;54.182;7.890;2023-06-14T03:59:44;15.50;99.90
21648;DHT22;10985;54.182;7.890;2023-06-14T04:02:09;15.50;99.90
21648;DHT22;10985;54.182;7.890;2023-06-14T04:04:35;15.50;99.90
21648;DHT22;10985;54.182;7.890;2023-06-14T04:07:01;15.60;99.90
21648;DHT22;10985;54.182;7.890;2023-06-14T04:09:31;15.60;99.90
21648;DHT22;10985;54.182;7.890;2023-06-14T04:11:56;15.60;99.90
21648;DHT22;10985;54.182;7.890;2023-06-14T04:14:22;15.60;99.90
21648;DHT22;10985;54.182;7.890;2023-06-14T04:16:48;15.60;99.90
21648;DHT22;10985;54.182;7.890;2023-06-14T04:19:15;15.60;99.90
21648;DHT22;10985;54.182;7.890;2023-06-14T04:21:40;15.60;99.90
21648;DHT22;10985;54.182;7.890;2023-06-14T04:24:06;15.60;99.90
21648;DHT22;10985;54.182;7.890;2023-06-14T04:26:32;15.70;99.90
21648;DHT22;10985;54.182;7.890;2023-06-14T04:29:00;15.60;99.90
21648;DHT22;10985;54.182;7.890;2023-06-14T04:31:30;15.70;99.90
21648;DHT22;10985;54.182;7.890;2023-06-14T04:33:59;15.70;99.90
21648;DHT22;10985;54.182;7.890;2023-06-14T04:36:25;15.70;99.90
21648;DHT22;10985;54.182;7.890;2023-06-14T04:38:52;15.80;99.90
21648;DHT22;10985;54.182;7.890;2023-06-14T04:41:20;15.80;99.90
21648;DHT22;10985;54.182;7.890;2023-06-14T04:43:48;15.80;99.90
21648;DHT22;10985;54.182;7.890;2023-06-14T04:46:15;15.90;99.90
21648;DHT22;10985;54.182;7.890;2023-06-14T04:48:41;15.90;99.90
21648;DHT22;10985;54.182;7.890;2023-06-14T04:51:08;15.90;99.90
21648;DHT22;10985;54.182;7.890;2023-06-14T04:53:34;16.00;99.90
21648;DHT22;10985;54.182;7.890;2023-06-14T04:56:00;16.10;99.90
21648;DHT22;10985;54.182;7.890;2023-06-14T04:58:29;16.20;99.90
21648;DHT22;10985;54.182;7.890;2023-06-14T05:00:55;16.40;99.90
21648;DHT22;10985;54.182;7.890;2023-06-14T05:03:22;16.60;99.90
21648;DHT22;10985;54.182;7.890;2023-06-14T05:05:49;16.80;99.90
21648;DHT22;10985;54.182;7.890;2023-06-14T05:08:15;17.00;99.90
21648;DHT22;10985;54.182;7.890;2023-06-14T05:10:41;17.20;99.90
21648;DHT22;10985;54.182;7.890;2023-06-14T05:13:06;17.40;99.90
21648;DHT22;10985;54.182;7.890;2023-06-14T05:15:32;17.60;99.90
21648;DHT22;10985;54.182;7.890;2023-06-14T05:17:57;17.80;99.90
21648;DHT22;10985;54.182;7.890;2023-06-14T05:20:24;17.90;99.90
21648;DHT22;10985;54.182;7.890;2023-06-14T05:22:51;18.10;99.90
21648;DHT22;10985;54.182;7.890;2023-06-14T05:25:18;18.30;99.90
21648;DHT22;10985;54.182;7.890;2023-06-14T05:27:44;18.50;99.90
21648;DHT22;10985;54.182;7.890;2023-06-14T05:30:10;18.70;99.90
21648;DHT22;10985;54.182;7.890;2023-06-14T05:32:36;18.80;99.90
21648;DHT22;10985;54.182;7.890;2023-06-14T05:35:01;18.90;99.90
21648;DHT22;10985;54.182;7.890;2023-06-14T05:37:27;19.20;99.90
21648;DHT22;10985;54.182;7.890;2023-06-14T05:39:52;19.30;99.90
21648;DHT22;10985;54.182;7.890;2023-06-14T05:42:18;19.40;99.90
21648;DHT22;10985;54.182;7.890;2023-06-14T05:44:43;19.50;99.90
21648;DHT22;10985;54.182;7.890;2023-06-14T05:47:09;19.60;99.90
21648;DHT22;10985;54.182;7.890;2023-06-14T05:49:34;19.70;99.90
21648;DHT22;10985;54.182;7.890;2023-06-14T05:52:00;19.80;99.90
21648;DHT22;10985;54.182;7.890;2023-06-14T05:54:25;19.80;99.90
21648;DHT22;10985;54.182;7.890;2023-06-14T05:56:51;19.70;99.90
21648;DHT22;10985;54.182;7.890;2023-06-14T05:59:16;19.70;99.90
21648;DHT22;10985;54.182;7.890;2023-06-14T06:01:42;19.70;99.90
21648;DHT22;10985;54.182;7.890;2023-06-14T06:04:07;19.60;99.90
21648;DHT22;10985;54.182;7.890;2023-06-14T06:06:33;19.60;99.90
21648;DHT22;10985;54.182;7.890;2023-06-14T06:08:58;19.60;99.90
21648;DHT22;10985;54.182;7.890;2023-06-14T06:11:25;19.60;99.90
21648;DHT22;10985;54.182;7.890;2023-06-14T06:13:50;19.80;99.90
21648;DHT22;10985;54.182;7.890;2023-06-14T06:16:16;19.90;99.90
21648;DHT22;10985;54.182;7.890;2023-06-14T06:18:41;20.00;99.90
21648;DHT22;10985;54.182;7.890;2023-06-14T06:21:07;20.00;99.90
21648;DHT22;10985;54.182;7.890;2023-06-14T06:23:32;20.00;99.90
21648;DHT22;10985;54.182;7.890;2023-06-14T06:25:58;20.10;99.90
21648;DHT22;10985;54.182;7.890;2023-06-14T06:28:23;20.20;99.90
21648;DHT22;10985;54.182;7.890;2023-06-14T06:30:49;20.30;99.90
21648;DHT22;10985;54.182;7.890;2023-06-14T06:33:16;20.50;99.90
21648;DHT22;10985;54.182;7.890;2023-06-14T06:35:41;20.50;99.90
21648;DHT22;10985;54.182;7.890;2023-06-14T06:38:08;20.70;99.90
21648;DHT22;10985;54.182;7.890;2023-06-14T06:40:35;20.70;99.90
21648;DHT22;10985;54.182;7.890;2023-06-14T06:43:02;20.80;99.90
21648;DHT22;10985;54.182;7.890;2023-06-14T06:45:27;21.00;99.90
21648;DHT22;10985;54.182;7.890;2023-06-14T06:47:53;21.00;99.90
21648;DHT22;10985;54.182;7.890;2023-06-14T06:50:19;21.10;99.90
21648;DHT22;10985;54.182;7.890;2023-06-14T06:52:45;21.30;99.90
21648;DHT22;10985;54.182;7.890;2023-06-14T06:55:11;21.30;99.90
21648;DHT22;10985;54.182;7.890;2023-06-14T06:57:36;21.40;99.90
21648;DHT22;10985;54.182;7.890;2023-06-14T07:00:02;21.50;99.90
21648;DHT22;10985;54.182;7.890;2023-06-14T07:02:33;21.50;99.90
21648;DHT22;10985;54.182;7.890;2023-06-14T07:04:58;21.60;99.90
21648;DHT22;10985;54.182;7.890;2023-06-14T07:07:24;21.60;99.90
21648;DHT22;10985;54.182;7.890;2023-06-14T07:09:49;21.50;99.90
21648;DHT22;10985;54.182;7.890;2023-06-14T07:12:15;21.50;99.90
21648;DHT22;10985;54.182;7.890;2023-06-14T07:14:41;21.60;99.90
21648;DHT22;10985;54.182;7.890;2023-06-14T07:17:06;21.60;99.90
21648;DHT22;10985;54.182;7.890;2023-06-14T07:19:32;21.60;99.90
21648;DHT22;10985;54.182;7.890;2023-06-14T07:21:58;21.60;99.90
21648;DHT22;10985;54.182;7.890;2023-06-14T07:24:24;21.70;99.90
21648;DHT22;10985;54.182;7.890;2023-06-14T07:26:49;21.60;99.90
21648;DHT22;10985;54.182;7.890;2023-06-14T07:29:15;21.70;99.90
21648;DHT22;10985;54.182;7.890;2023-06-14T07:31:41;21.60;99.90
21648;DHT22;10985;54.182;7.890;2023-06-14T07:34:07;21.50;99.90
21648;DHT22;10985;54.182;7.890;2023-06-14T07:36:32;21.50;99.90
21648;DHT22;10985;54.182;7.890;2023-06-14T07:38:58;21.50;99.90
21648;DHT22;10985;54.182;7.890;2023-06-14T07:41:24;21.50;99.90
21648;DHT22;10985;54.182;7.890;2023-06-14T07:43:51;21.40;99.90
21648;DHT22;10985;54.182;7.890;2023-06-14T07:46:16;21.40;99.90
21648;DHT22;10985;54.182;7.890;2023-06-14T07:48:42;21.40;99.90
21648;DHT22;10985;54.182;7.890;2023-06-14T07:51:07;21.40;99.90
21648;DHT22;10985;54.182;7.890;2023-06-14T07:53:33;21.40;99.90
21648;DHT22;10985;54.182;7.890;2023-06-14T07:55:58;21.30;99.90
21648;DHT22;10985;54.182;7.890;2023-06-14T07:58:25;21.40;99.90
21648;DHT22;10985;54.182;7.890;2023-06-14T08:00:50;21.60;99.90
21648;DHT22;10985;54.182;7.890;2023-06-14T08:03:16;21.60;99.90
21648;DHT22;10985;54.182;7.890;2023-06-14T08:05:42;21.70;99.90
21648;DHT22;10985;54.182;7.890;2023-06-14T08:08:07;21.80;99.90
21648;DHT22;10985;54.182;7.890;2023-06-14T08:10:33;22.00;99.90
21648;DHT22;10985;54.182;7.890;2023-06-14T08:12:58;22.00;99.90
21648;DHT22;10985;54.182;7.890;2023-06-14T08:15:24;22.20;99.90
21648;DHT22;10985;54.182;7.890;2023-06-14T08:17:49;22.20;99.90
21648;DHT22;10985;54.182;7.890;2023-06-14T08:20:16;22.30;99.90
21648;DHT22;10985;54.182;7.890;2023-06-14T08:22:42;22.20;99.90
21648;DHT22;10985;54.182;7.890;2023-06-14T08:25:08;22.30;99.90
21648;DHT22;10985;54.182;7.890;2023-06-14T08:27:34;22.30;99.90
21648;DHT22;10985;54.182;7.890;2023-06-14T08:29:59;22.30;99.90
21648;DHT22;10985;54.182;7.890;2023-06-14T08:32:25;22.40;99.90
21648;DHT22;10985;54.182;7.890;2023-06-14T08:34:50;22.60;99.90
21648;DHT22;10985;54.182;7.890;2023-06-14T08:37:16;22.70;99.90
21648;DHT22;10985;54.182;7.890;2023-06-14T08:39:42;22.80;99.90
21648;DHT22;10985;54.182;7.890;2023-06-14T08:42:09;23.00;99.90
21648;DHT22;10985;54.182;7.890;2023-06-14T08:44:35;23.20;99.90
21648;DHT22;10985;54.182;7.890;2023-06-14T08:47:01;23.30;99.90
21648;DHT22;10985;54.182;7.890;2023-06-14T08:49:29;23.50;99.90
21648;DHT22;10985;54.182;7.890;2023-06-14T08:51:58;23.60;99.90
21648;DHT22;10985;54.182;7.890;2023-06-14T08:54:25;24.00;99.90
21648;DHT22;10985;54.182;7.890;2023-06-14T08:56:53;24.10;99.90
21648;DHT22;10985;54.182;7.890;2023-06-14T08:59:19;24.40;99.90
21648;DHT22;10985;54.182;7.890;2023-06-14T09:01:46;24.80;99.90
21648;DHT22;10985;54.182;7.890;2023-06-14T09:04:13;24.90;99.90
21648;DHT22;10985;54.182;7.890;2023-06-14T09:06:38;25.00;99.90
21648;DHT22;10985;54.182;7.890;2023-06-14T09:09:04;25.20;99.90
21648;DHT22;10985;54.182;7.890;2023-06-14T09:11:30;25.40;99.90
21648;DHT22;10985;54.182;7.890;2023-06-14T09:13:56;25.70;99.90
21648;DHT22;10985;54.182;7.890;2023-06-14T09:16:21;26.10;99.90
21648;DHT22;10985;54.182;7.890;2023-06-14T09:18:47;26.50;99.90
21648;DHT22;10985;54.182;7.890;2023-06-14T09:21:14;27.30;99.90
21648;DHT22;10985;54.182;7.890;2023-06-14T09:23:43;28.20;99.90
21648;DHT22;10985;54.182;7.890;2023-06-14T09:26:13;28.90;99.90
21648;DHT22;10985;54.182;7.890;2023-06-14T09:28:49;29.30;99.90
21648;DHT22;10985;54.182;7.890;2023-06-14T09:31:19;29.90;99.90
21648;DHT22;10985;54.182;7.890;2023-06-14T09:33:45;30.30;99.90
21648;DHT22;10985;54.182;7.890;2023-06-14T09:36:22;30.60;99.90
21648;DHT22;10985;54.182;7.890;2023-06-14T09:38:57;30.90;99.90
21648;DHT22;10985;54.182;7.890;2023-06-14T09:41:40;31.10;99.90
21648;DHT22;10985;54.182;7.890;2023-06-14T09:44:07;31.30;99.90
21648;DHT22;10985;54.182;7.890;2023-06-14T09:46:35;31.60;99.90
21648;DHT22;10985;54.182;7.890;2023-06-14T09:49:02;31.70;99.90
21648;DHT22;10985;54.182;7.890;2023-06-14T09:51:28;31.90;99.90
21648;DHT22;10985;54.182;7.890;2023-06-14T09:54:01;32.00;99.90
21648;DHT22;10985;54.182;7.890;2023-06-14T09:56:28;32.20;99.90
21648;DHT22;10985;54.182;7.890;2023-06-14T09:58:59;32.50;99.90
21648;DHT22;10985;54.182;7.890;2023-06-14T10:01:26;32.60;99.90
21648;DHT22;10985;54.182;7.890;2023-06-14T10:03:55;32.80;99.90
21648;DHT22;10985;54.182;7.890;2023-06-14T10:06:26;32.90;99.90
21648;DHT22;10985;54.182;7.890;2023-06-14T10:08:58;33.10;99.90
21648;DHT22;10985;54.182;7.890;2023-06-14T10:11:27;33.20;99.50
21648;DHT22;10985;54.182;7.890;2023-06-14T10:13:57;33.30;98.80
21648;DHT22;10985;54.182;7.890;2023-06-14T10:16:33;33.50;98.40
21648;DHT22;10985;54.182;7.890;2023-06-14T10:19:07;33.90;97.60
21648;DHT22;10985;54.182;7.890;2023-06-14T10:21:58;34.00;96.60
21648;DHT22;10985;54.182;7.890;2023-06-14T10:24:30;34.20;95.40
21648;DHT22;10985;54.182;7.890;2023-06-14T10:26:58;34.40;95.00
21648;DHT22;10985;54.182;7.890;2023-06-14T10:29:25;34.40;94.00
21648;DHT22;10985;54.182;7.890;2023-06-14T10:31:56;34.20;94.10
21648;DHT22;10985;54.182;7.890;2023-06-14T10:34:24;34.30;94.00
21648;DHT22;10985;54.182;7.890;2023-06-14T10:37:13;34.60;94.30
21648;DHT22;10985;54.182;7.890;2023-06-14T10:39:43;34.90;95.10
21648;DHT22;10985;54.182;7.890;2023-06-14T10:42:11;35.00;95.20
21648;DHT22;10985;54.182;7.890;2023-06-14T10:44:41;35.10;94.90
21648;DHT22;10985;54.182;7.890;2023-06-14T10:49:47;35.30;94.50
21648;DHT22;10985;54.182;7.890;2023-06-14T10:52:19;35.60;94.30
21648;DHT22;10985;54.182;7.890;2023-06-14T10:55:15;35.70;94.10
21648;DHT22;10985;54.182;7.890;2023-06-14T10:57:44;35.80;93.70
21648;DHT22;10985;54.182;7.890;2023-06-14T11:00:12;36.00;93.40
21648;DHT22;10985;54.182;7.890;2023-06-14T11:02:51;36.10;93.00
21648;DHT22;10985;54.182;7.890;2023-06-14T11:05:27;36.20;92.40
21648;DHT22;10985;54.182;7.890;2023-06-14T11:10:39;36.50;91.70
21648;DHT22;10985;54.182;7.890;2023-06-14T11:13:06;36.50;91.60
21648;DHT22;10985;54.182;7.890;2023-06-14T11:18:04;36.70;91.10
21648;DHT22;10985;54.182;7.890;2023-06-14T11:20:32;36.80;91.10
21648;DHT22;10985;54.182;7.890;2023-06-14T11:22:58;36.70;91.00
21648;DHT22;10985;54.182;7.890;2023-06-14T11:25:24;36.70;91.00
21648;DHT22;10985;54.182;7.890;2023-06-14T11:27:50;36.70;90.90
21648;DHT22;10985;54.182;7.890;2023-06-14T11:30:16;36.80;90.70
21648;DHT22;10985;54.182;7.890;2023-06-14T11:32:45;37.00;90.80
21648;DHT22;10985;54.182;7.890;2023-06-14T11:35:11;37.00;90.70
21648;DHT22;10985;54.182;7.890;2023-06-14T11:37:37;37.10;90.50
21648;DHT22;10985;54.182;7.890;2023-06-14T11:40:04;37.20;90.30
21648;DHT22;10985;54.182;7.890;2023-06-14T11:42:33;37.30;90.00
21648;DHT22;10985;54.182;7.890;2023-06-14T11:45:00;37.30;89.40
21648;DHT22;10985;54.182;7.890;2023-06-14T11:47:32;37.40;89.30
21648;DHT22;10985;54.182;7.890;2023-06-14T11:50:06;37.40;89.80
21648;DHT22;10985;54.182;7.890;2023-06-14T11:52:32;37.40;88.20
21648;DHT22;10985;54.182;7.890;2023-06-14T11:54:58;37.40;88.20
21648;DHT22;10985;54.182;7.890;2023-06-14T11:57:24;37.50;86.30
21648;DHT22;10985;54.182;7.890;2023-06-14T11:59:50;37.50;86.20
21648;DHT22;10985;54.182;7.890;2023-06-14T12:02:16;37.50;86.00
21648;DHT22;10985;54.182;7.890;2023-06-14T12:04:42;37.50;84.60
21648;DHT22;10985;54.182;7.890;2023-06-14T12:07:09;37.40;82.00
21648;DHT22;10985;54.182;7.890;2023-06-14T12:09:36;37.40;81.70
21648;DHT22;10985;54.182;7.890;2023-06-14T12:12:02;37.40;82.40
21648;DHT22;10985;54.182;7.890;2023-06-14T12:14:32;37.50;82.40
21648;DHT22;10985;54.182;7.890;2023-06-14T12:17:07;37.60;82.20
21648;DHT22;10985;54.182;7.890;2023-06-14T12:19:33;37.80;81.30
21648;DHT22;10985;54.182;7.890;2023-06-14T12:22:04;37.80;80.60
21648;DHT22;10985;54.182;7.890;2023-06-14T12:24:31;37.80;80.70
21648;DHT22;10985;54.182;7.890;2023-06-14T12:27:00;38.00;79.70
21648;DHT22;10985;54.182;7.890;2023-06-14T12:29:31;38.00;78.70
21648;DHT22;10985;54.182;7.890;2023-06-14T12:31:57;37.80;79.00
21648;DHT22;10985;54.182;7.890;2023-06-14T12:34:23;37.60;79.50
21648;DHT22;10985;54.182;7.890;2023-06-14T12:36:50;37.40;80.10
21648;DHT22;10985;54.182;7.890;2023-06-14T12:39:16;37.30;80.30
21648;DHT22;10985;54.182;7.890;2023-06-14T12:41:42;37.10;80.00
21648;DHT22;10985;54.182;7.890;2023-06-14T12:44:07;36.70;80.80
21648;DHT22;10985;54.182;7.890;2023-06-14T12:46:33;36.50;81.90
21648;DHT22;10985;54.182;7.890;2023-06-14T12:49:00;36.50;83.40
21648;DHT22;10985;54.182;7.890;2023-06-14T12:51:25;36.30;84.10
21648;DHT22;10985;54.182;7.890;2023-06-14T12:53:51;36.00;85.70
21648;DHT22;10985;54.182;7.890;2023-06-14T12:56:17;35.80;86.90
21648;DHT22;10985;54.182;7.890;2023-06-14T12:58:43;35.50;88.20
21648;DHT22;10985;54.182;7.890;2023-06-14T13:01:08;35.30;88.00
21648;DHT22;10985;54.182;7.890;2023-06-14T13:03:34;35.00;89.40
21648;DHT22;10985;54.182;7.890;2023-06-14T13:06:00;34.60;89.70
21648;DHT22;10985;54.182;7.890;2023-06-14T13:08:26;34.20;90.00
21648;DHT22;10985;54.182;7.890;2023-06-14T13:10:53;33.70;90.90
21648;DHT22;10985;54.182;7.890;2023-06-14T13:13:18;33.30;91.90
21648;DHT22;10985;54.182;7.890;2023-06-14T13:15:44;32.80;92.70
21648;DHT22;10985;54.182;7.890;2023-06-14T13:18:11;32.20;94.10
21648;DHT22;10985;54.182;7.890;2023-06-14T13:20:38;31.70;95.90
21648;DHT22;10985;54.182;7.890;2023-06-14T13:23:04;31.20;96.80
21648;DHT22;10985;54.182;7.890;2023-06-14T13:25:31;30.70;97.80
21648;DHT22;10985;54.182;7.890;2023-06-14T13:27:57;30.30;99.40
21648;DHT22;10985;54.182;7.890;2023-06-14T13:30:22;29.90;99.90
21648;DHT22;10985;54.182;7.890;2023-06-14T13:32:48;29.50;99.90
21648;DHT22;10985;54.182;7.890;2023-06-14T13:35:13;29.20;99.90
21648;DHT22;10985;54.182;7.890;2023-06-14T13:37:39;28.80;99.90
21648;DHT22;10985;54.182;7.890;2023-06-14T13:40:05;28.50;99.90
21648;DHT22;10985;54.182;7.890;2023-06-14T13:42:31;28.20;99.90
21648;DHT22;10985;54.182;7.890;2023-06-14T13:44:58;27.80;99.90
21648;DHT22;10985;54.182;7.890;2023-06-14T13:47:23;27.50;99.90
21648;DHT22;10985;54.182;7.890;2023-06-14T13:49:49;27.30;99.90
21648;DHT22;10985;54.182;7.890;2023-06-14T13:52:14;27.10;99.90
21648;DHT22;10985;54.182;7.890;2023-06-14T13:54:40;26.90;99.90
21648;DHT22;10985;54.182;7.890;2023-06-14T13:57:06;26.60;99.90
21648;DHT22;10985;54.182;7.890;2023-06-14T13:59:31;26.50;99.90
21648;DHT22;10985;54.182;7.890;2023-06-14T14:01:57;26.30;99.90
21648;DHT22;10985;54.182;7.890;2023-06-14T14:04:23;26.10;99.90
21648;DHT22;10985;54.182;7.890;2023-06-14T14:06:48;25.90;99.90
21648;DHT22;10985;54.182;7.890;2023-06-14T14:09:14;25.70;99.90
21648;DHT22;10985;54.182;7.890;2023-06-14T14:11:40;25.50;99.90
21648;DHT22;10985;54.182;7.890;2023-06-14T14:14:07;25.30;99.90
21648;DHT22;10985;54.182;7.890;2023-06-14T14:16:33;25.20;99.90
21648;DHT22;10985;54.182;7.890;2023-06-14T14:19:00;25.00;99.90
21648;DHT22;10985;54.182;7.890;2023-06-14T14:21:26;24.80;99.90
21648;DHT22;10985;54.182;7.890;2023-06-14T14:23:52;24.70;99.90
21648;DHT22;10985;54.182;7.890;2023-06-14T14:26:17;24.60;99.90
21648;DHT22;10985;54.182;7.890;2023-06-14T14:28:43;24.50;99.90
21648;DHT22;10985;54.182;7.890;2023-06-14T14:31:08;24.40;99.90
21648;DHT22;10985;54.182;7.890;2023-06-14T14:33:34;24.20;99.90
21648;DHT22;10985;54.182;7.890;2023-06-14T14:36:00;24.10;99.90
21648;DHT22;10985;54.182;7.890;2023-06-14T14:38:29;24.00;99.90
21648;DHT22;10985;54.182;7.890;2023-06-14T14:40:54;23.90;99.90
21648;DHT22;10985;54.182;7.890;2023-06-14T14:43:20;23.90;99.90
21648;DHT22;10985;54.182;7.890;2023-06-14T14:45:45;23.70;99.90
21648;DHT22;10985;54.182;7.890;2023-06-14T14:48:11;23.60;99.90
21648;DHT22;10985;54.182;7.890;2023-06-14T14:50:36;23.50;99.90
21648;DHT22;10985;54.182;7.890;2023-06-14T14:53:02;23.50;99.90
21648;DHT22;10985;54.182;7.890;2023-06-14T14:55:28;23.40;99.90
21648;DHT22;10985;54.182;7.890;2023-06-14T14:57:53;23.40;99.90
21648;DHT22;10985;54.182;7.890;2023-06-14T15:00:19;23.40;99.90
21648;DHT22;10985;54.182;7.890;2023-06-14T15:02:45;23.30;99.90
21648;DHT22;10985;54.182;7.890;2023-06-14T15:05:10;23.20;99.90
21648;DHT22;10985;54.182;7.890;2023-06-14T15:07:36;23.10;99.90
21648;DHT22;10985;54.182;7.890;2023-06-14T15:10:02;23.10;99.90
21648;DHT22;10985;54.182;7.890;2023-06-14T15:12:28;23.00;99.90
21648;DHT22;10985;54.182;7.890;2023-06-14T15:14:53;22.90;99.90
21648;DHT22;10985;54.182;7.890;2023-06-14T15:17:19;22.90;99.90
21648;DHT22;10985;54.182;7.890;2023-06-14T15:19:46;22.80;99.90
21648;DHT22;10985;54.182;7.890;2023-06-14T15:22:12;22.70;99.90
21648;DHT22;10985;54.182;7.890;2023-06-14T15:24:38;22.70;99.90
21648;DHT22;10985;54.182;7.890;2023-06-14T15:27:04;22.70;99.90
21648;DHT22;10985;54.182;7.890;2023-06-14T15:29:29;22.70;99.90
21648;DHT22;10985;54.182;7.890;2023-06-14T15:31:55;22.60;99.90
21648;DHT22;10985;54.182;7.890;2023-06-14T15:34:22;22.50;99.90
21648;DHT22;10985;54.182;7.890;2023-06-14T15:36:48;22.50;99.90
21648;DHT22;10985;54.182;7.890;2023-06-14T15:39:13;22.50;99.90
21648;DHT22;10985;54.182;7.890;2023-06-14T15:41:39;22.40;99.90